»·PEaware :: SWA1866 KLAS-KPHX

SWA1866 :: KLAS-KPHX

FLIGHT INFORMATION

Flight Status: Arrived
Operator:
Southwest Airlines
More flights by this operator :: More flights under this callsign
Pilot: Scott H. (18906)
Aircraft: BOEING 737-700
(B737)
More flights by this aircraft type
Origin: KLAS McCarran Intl
United States
Destination: KPHX Phoenix Sky Harbor Intl
United States
More flights between these airports :: More routes between these airports
Route: COWBY8 COWBY TENTS BRUSR1
File this flight plan on PilotEdge
Remarks: PBN / A1B1C1D1S1S2 NAV / RNVD1E2A1 REG / N714SB EET / KZAB0020 RMK / SIMBRIEF
Altitude:
(Current/Filed)
29,000ft
Speed:
(Current/Filed)
428kts
Departed: 20-Apr-18 08:44 PM
Arrived: 20-Apr-18 09:36 PM
Distance/Time
Traveled:
222nm/0:52
Distance/Time
To Go:
Arrived

Flight Plot

Page will automatically refresh every two minutes.

Flight plan parsing failed; only flown route is shown


Map Options




Map Legend


Flown Route
Filed Route
Departure Airport
Arrival Airport
Navaid (VOR, NDB)
Fix

Horizontal Profiles

Position Reports

Time Latitude Longitude Heading Altitude Ground
Speed
20-Apr-18 20:16 36.081298 -115.146159 251 2192ft 0kts
20-Apr-18 20:17 36.081298 -115.146159 251 2192ft 0kts
20-Apr-18 20:18 36.081298 -115.146159 251 2192ft 0kts
20-Apr-18 20:19 36.081298 -115.146159 251 2192ft 0kts
20-Apr-18 20:20 36.081298 -115.146159 251 2192ft 0kts
20-Apr-18 20:21 36.081298 -115.146159 251 2192ft 0kts
20-Apr-18 20:22 36.081298 -115.146159 251 2192ft 0kts
20-Apr-18 20:23 36.081298 -115.146159 251 2192ft 0kts
20-Apr-18 20:24 36.081298 -115.146159 251 2192ft 0kts
20-Apr-18 20:25 36.081298 -115.146159 251 2192ft 0kts
20-Apr-18 20:26 36.081298 -115.146159 251 2192ft 0kts
20-Apr-18 20:27 36.081298 -115.146159 251 2192ft 0kts
20-Apr-18 20:28 36.081313 -115.146102 251 2192ft 1kts
20-Apr-18 20:29 36.081556 -115.145197 251 2192ft 2kts
20-Apr-18 20:30 36.081592 -115.145063 251 2192ft 0kts
20-Apr-18 20:31 36.081591 -115.145067 251 2192ft 0kts
20-Apr-18 20:32 36.081590 -115.145073 251 2192ft 0kts
20-Apr-18 20:33 36.081588 -115.145078 251 2192ft 0kts
20-Apr-18 20:34 36.080399 -115.144693 166 2192ft 10kts
20-Apr-18 20:35 36.079531 -115.144495 176 2192ft 4kts
20-Apr-18 20:36 36.079268 -115.144483 177 2192ft 4kts
20-Apr-18 20:37 36.078272 -115.141724 91 2192ft 14kts
20-Apr-18 20:38 36.078273 -115.136446 90 2192ft 20kts
20-Apr-18 20:39 36.078222 -115.128424 90 2192ft 21kts
20-Apr-18 20:40 36.077669 -115.122431 119 2192ft 12kts
20-Apr-18 20:41 36.077111 -115.121313 178 2192ft 0kts
20-Apr-18 20:42 36.076407 -115.121454 232 2192ft 7kts
20-Apr-18 20:43 36.076290 -115.138537 269 2193ft 162kts
20-Apr-18 20:44 36.061629 -115.198757 222 4826ft 197kts
20-Apr-18 20:45 36.016003 -115.250938 224 7529ft 256kts
20-Apr-18 20:46 35.948109 -115.291831 171 10129ft 301kts
20-Apr-18 20:47 35.869507 -115.253837 129 12676ft 308kts
20-Apr-18 20:48 35.839938 -115.155059 100 15276ft 316kts
20-Apr-18 20:49 35.822875 -115.045023 78 17586ft 348kts
20-Apr-18 20:50 35.835316 -114.918459 77 20157ft 389kts
20-Apr-18 20:51 35.847908 -114.782157 77 22945ft 409kts
20-Apr-18 20:52 35.860694 -114.639489 76 25297ft 428kts
20-Apr-18 20:53 35.873708 -114.491425 76 27301ft 442kts
20-Apr-18 20:54 35.886905 -114.339035 75 29026ft 445kts
20-Apr-18 20:55 35.899799 -114.187667 75 29082ft 444kts
20-Apr-18 20:56 35.912565 -114.035680 75 29087ft 444kts
20-Apr-18 20:57 35.916712 -113.884039 96 29118ft 454kts
20-Apr-18 20:58 35.874967 -113.732806 104 29131ft 471kts
20-Apr-18 20:59 35.829923 -113.580903 103 29137ft 471kts
20-Apr-18 21:00 35.785230 -113.429253 104 29168ft 471kts
20-Apr-18 21:01 35.740359 -113.277473 104 29182ft 473kts
20-Apr-18 21:02 35.695023 -113.124907 104 29193ft 474kts
20-Apr-18 21:03 35.649687 -112.973093 104 29208ft 473kts
20-Apr-18 21:04 35.604101 -112.821212 104 29226ft 472kts
20-Apr-18 21:05 35.558458 -112.670054 105 29231ft 471kts
20-Apr-18 21:06 35.511955 -112.519228 111 29224ft 471kts
20-Apr-18 21:07 35.403739 -112.434853 171 29234ft 484kts
20-Apr-18 21:08 35.271465 -112.407851 174 29229ft 482kts
20-Apr-18 21:09 35.138754 -112.381798 173 29225ft 482kts
20-Apr-18 21:10 35.006958 -112.352911 174 29224ft 481kts
20-Apr-18 21:11 34.875112 -112.324327 174 28832ft 475kts
20-Apr-18 21:12 34.747245 -112.296154 174 26747ft 461kts
20-Apr-18 21:13 34.623026 -112.268857 174 24726ft 446kts
20-Apr-18 21:14 34.502430 -112.242442 173 22697ft 434kts
20-Apr-18 21:15 34.386147 -112.215601 170 20983ft 425kts
20-Apr-18 21:16 34.271955 -112.185251 168 18864ft 416kts
20-Apr-18 21:17 34.159947 -112.156107 167 17167ft 398kts
20-Apr-18 21:18 34.056376 -112.127934 163 17061ft 373kts
20-Apr-18 21:19 33.958587 -112.086711 158 17040ft 372kts
20-Apr-18 21:20 33.860498 -112.045676 159 15608ft 378kts
20-Apr-18 21:21 33.760838 -112.005038 160 13071ft 379kts
20-Apr-18 21:22 33.664046 -111.965844 161 10671ft 334kts
20-Apr-18 21:23 33.584751 -111.933804 162 8861ft 281kts
20-Apr-18 21:24 33.530749 -111.884946 99 7594ft 241kts
20-Apr-18 21:25 33.526654 -111.803982 91 7342ft 243kts
20-Apr-18 21:26 33.524502 -111.722827 90 6379ft 244kts
20-Apr-18 21:27 33.507341 -111.647947 144 5458ft 239kts
20-Apr-18 21:28 33.453597 -111.667940 240 5034ft 220kts
20-Apr-18 21:29 33.440535 -111.733559 267 5025ft 199kts
20-Apr-18 21:30 33.440645 -111.800145 271 4243ft 201kts
20-Apr-18 21:31 33.440712 -111.865823 270 3171ft 183kts
20-Apr-18 21:32 33.440732 -111.918305 270 2327ft 136kts
20-Apr-18 21:33 33.440847 -111.961497 269 1688ft 128kts
20-Apr-18 21:34 33.440820 -112.003115 269 1146ft 89kts
20-Apr-18 21:35 33.440061 -112.011024 177 1146ft 0kts
20-Apr-18 21:36 33.438993 -112.008793 91 1146ft 17kts
20-Apr-18 21:37 33.438208 -112.003761 178 1146ft 12kts
20-Apr-18 21:38 33.433923 -112.003785 179 1146ft 17kts
20-Apr-18 21:39 33.432863 -111.999419 89 1146ft 16kts
20-Apr-18 21:40 33.432980 -111.994942 28 1146ft 3kts
20-Apr-18 21:41 33.433398 -111.994618 33 1146ft 0kts
20-Apr-18 21:42 33.433398 -111.994618 33 1146ft 0kts
20-Apr-18 21:43 33.433398 -111.994618 33 1146ft 0kts

Navigation Log

Ident Type
Flight plan parsing failed, navigation log unavailable